Terminal Aerodrome Forecast
Issued by NWS Albany, NY

Home | Current Version | Previous Version | Text Only | Print | Product List | Glossary On
Versions: 1 2 3 4 5 6 7 8 9 10 11 12 13 14 15 16 17 18 19 20 21 22 23
000
FTUS41 KALY 281100 RRA
TAFALB
TAF
KALB 281145Z 2812/2912 01008KT P6SM BKN008 BKN023 OVC035
      TEMPO 2812/2813 5SM -RA BR BKN025 OVC050
     FM281400 15007KT P6SM VCSH BKN040
     FM281800 17009KT 3SM -TSRA BR BKN030CB OVC050
     FM282100 27014G20KT P6SM BKN050
     FM290800 29007KT P6SM SCT050=

USA.gov is the U.S. government's official web portal to all federal, state and local government web resources and services.